createdAt,value
2023-02-03T00:00:39.325Z,5.181
2023-02-03T00:01:39.083Z,5.245
2023-02-03T00:02:39.067Z,5.213
2023-02-03T00:03:39.019Z,5.202
2023-02-03T00:04:38.790Z,5.165
2023-02-03T00:05:39.667Z,5.285
2023-02-03T00:06:39.407Z,5.242
2023-02-03T00:07:39.327Z,5.245
2023-02-03T00:08:38.987Z,5.216
2023-02-03T00:09:39.829Z,5.162
2023-02-03T00:10:39.770Z,5.285
2023-02-03T00:11:39.490Z,5.293
2023-02-03T00:12:39.322Z,5.221
2023-02-03T00:13:39.154Z,5.272
2023-02-03T00:14:38.895Z,5.216
2023-02-03T00:15:39.737Z,5.229
2023-02-03T00:16:39.533Z,5.229
2023-02-03T00:17:39.187Z,5.208
2023-02-03T00:18:38.875Z,5.245
2023-02-03T00:19:39.628Z,5.200
2023-02-03T00:20:39.440Z,5.261
2023-02-03T00:21:39.447Z,5.256
2023-02-03T00:22:39.304Z,5.170
2023-02-03T00:23:39.225Z,5.154
2023-02-03T00:24:39.001Z,5.149
2023-02-03T00:25:39.037Z,5.146
2023-02-03T00:26:38.815Z,5.216
2023-02-03T00:27:39.612Z,5.245
2023-02-03T00:28:39.423Z,5.226
2023-02-03T00:29:39.216Z,5.216
2023-02-03T00:30:38.986Z,5.189
2023-02-03T00:31:38.863Z,5.143
2023-02-03T00:32:39.211Z,5.130
2023-02-03T00:33:39.236Z,5.192
2023-02-03T00:34:39.176Z,5.205
2023-02-03T00:35:38.947Z,5.229
2023-02-03T00:36:42.860Z,5.165
2023-02-03T00:37:39.175Z,5.111
2023-02-03T00:38:38.826Z,5.133
2023-02-03T00:39:38.687Z,5.183
2023-02-03T00:40:39.526Z,5.197
2023-02-03T00:41:39.485Z,5.170
2023-02-03T00:42:39.313Z,5.127
2023-02-03T00:43:39.128Z,5.127
2023-02-03T00:44:38.875Z,5.170
2023-02-03T00:45:38.813Z,5.119
2023-02-03T00:46:39.004Z,5.162
2023-02-03T00:47:39.361Z,5.197
2023-02-03T00:48:39.439Z,5.264
2023-02-03T00:49:39.165Z,5.232
2023-02-03T00:50:39.045Z,5.210
2023-02-03T00:51:38.866Z,5.170
2023-02-03T00:52:39.731Z,5.216
2023-02-03T00:53:39.433Z,5.181
2023-02-03T00:54:40.609Z,5.146
2023-02-03T00:55:40.872Z,5.127
2023-02-03T00:56:39.513Z,5.143
2023-02-03T00:57:40.155Z,5.154
2023-02-03T00:58:38.860Z,5.154
2023-02-03T00:59:39.631Z,5.178
2023-02-03T01:00:39.323Z,5.197
2023-02-03T01:01:40.461Z,5.256
2023-02-03T01:02:39.608Z,5.240
2023-02-03T01:03:39.859Z,5.277
2023-02-03T01:04:39.726Z,5.202
2023-02-03T01:05:39.445Z,5.200
2023-02-03T01:06:39.614Z,5.269
2023-02-03T01:07:39.347Z,5.245
2023-02-03T01:08:39.286Z,5.290
2023-02-03T01:09:39.315Z,5.221
2023-02-03T01:10:39.169Z,5.226
2023-02-03T01:11:39.150Z,5.304
2023-02-03T01:12:38.871Z,5.317
2023-02-03T01:13:39.913Z,5.256
2023-02-03T01:14:38.864Z,5.253
2023-02-03T01:15:39.629Z,5.245
2023-02-03T01:16:39.143Z,5.282
2023-02-03T01:17:39.428Z,5.245
2023-02-03T01:18:39.450Z,5.213
2023-02-03T01:19:39.215Z,5.242
2023-02-03T01:20:39.466Z,5.288
2023-02-03T01:21:39.432Z,5.293
2023-02-03T01:22:39.215Z,5.266
2023-02-03T01:23:38.991Z,5.250
2023-02-03T01:24:38.805Z,5.186
2023-02-03T01:25:39.505Z,5.173
2023-02-03T01:26:39.349Z,5.210
2023-02-03T01:27:39.275Z,5.218
2023-02-03T01:28:39.059Z,5.285
2023-02-03T01:29:38.854Z,5.248
2023-02-03T01:30:39.624Z,5.258
2023-02-03T01:31:39.228Z,5.197
2023-02-03T01:32:39.481Z,5.210
2023-02-03T01:33:39.480Z,5.218
2023-02-03T01:34:39.517Z,5.221
2023-02-03T01:35:39.731Z,5.218
2023-02-03T01:36:39.451Z,5.213
2023-02-03T01:37:39.252Z,5.138
2023-02-03T01:38:39.039Z,5.218
2023-02-03T01:39:38.875Z,5.258
2023-02-03T01:40:39.653Z,5.208
2023-02-03T01:41:39.538Z,5.256
2023-02-03T01:42:39.435Z,5.256
2023-02-03T01:43:39.499Z,5.245
2023-02-03T01:44:39.467Z,5.256
2023-02-03T01:45:39.185Z,5.248
2023-02-03T01:46:39.352Z,5.301
2023-02-03T01:47:39.164Z,5.272
2023-02-03T01:48:38.994Z,5.344
2023-02-03T01:49:38.836Z,5.312
2023-02-03T01:50:39.744Z,5.296
2023-02-03T01:51:39.615Z,5.266
2023-02-03T01:52:39.168Z,5.258
2023-02-03T01:53:39.124Z,5.288
2023-02-03T01:54:38.975Z,5.306
2023-02-03T01:55:38.783Z,5.346
2023-02-03T01:56:39.580Z,5.336
2023-02-03T01:57:38.659Z,5.336
2023-02-03T01:58:39.315Z,5.336
2023-02-03T01:59:39.159Z,5.344
2023-02-03T02:00:39.850Z,5.298
2023-02-03T02:01:39.076Z,5.309
2023-02-03T02:02:38.951Z,5.325
2023-02-03T02:03:39.105Z,5.309
2023-02-03T02:04:38.936Z,5.373
2023-02-03T02:05:39.707Z,5.365
2023-02-03T02:06:39.574Z,5.312
2023-02-03T02:07:39.382Z,5.298
2023-02-03T02:08:39.281Z,5.349
2023-02-03T02:09:39.212Z,5.285
2023-02-03T02:10:39.091Z,5.365
2023-02-03T02:11:38.789Z,5.341
2023-02-03T02:12:39.567Z,5.317
2023-02-03T02:13:39.239Z,5.346
2023-02-03T02:14:39.108Z,5.317
2023-02-03T02:15:39.074Z,5.314
2023-02-03T02:16:39.379Z,5.421
2023-02-03T02:17:39.651Z,5.330
2023-02-03T02:18:39.561Z,5.378
2023-02-03T02:19:39.815Z,5.338
2023-02-03T02:20:38.992Z,5.320
2023-02-03T02:21:39.036Z,5.293
2023-02-03T02:22:39.254Z,5.341
2023-02-03T02:23:39.248Z,5.394
2023-02-03T02:24:39.390Z,5.373
2023-02-03T02:25:39.382Z,5.328
2023-02-03T02:26:39.607Z,5.312
2023-02-03T02:27:39.759Z,5.373
2023-02-03T02:28:39.216Z,5.370
2023-02-03T02:29:39.782Z,5.381
2023-02-03T02:30:39.841Z,5.349
2023-02-03T02:31:39.463Z,5.443
2023-02-03T02:32:38.863Z,5.397
2023-02-03T02:33:39.607Z,5.384
2023-02-03T02:34:39.549Z,5.360
2023-02-03T02:35:39.441Z,5.378
2023-02-03T02:36:39.623Z,5.459
2023-02-03T02:37:39.450Z,5.400
2023-02-03T02:38:39.223Z,5.384
2023-02-03T02:39:39.016Z,5.381
2023-02-03T02:40:38.940Z,5.389
2023-02-03T02:41:38.715Z,5.384
2023-02-03T02:42:39.549Z,5.469
2023-02-03T02:43:39.384Z,5.485
2023-02-03T02:44:39.244Z,5.491
2023-02-03T02:45:39.348Z,5.515
2023-02-03T02:46:39.444Z,5.520
2023-02-03T02:47:39.424Z,5.491
2023-02-03T02:48:39.310Z,5.488
2023-02-03T02:49:39.294Z,5.488
2023-02-03T02:50:39.463Z,5.467
2023-02-03T02:51:39.557Z,5.432
2023-02-03T02:52:40.437Z,5.515
2023-02-03T02:53:39.368Z,5.491
2023-02-03T02:54:39.431Z,5.520
2023-02-03T02:55:39.529Z,5.512
2023-02-03T02:56:39.626Z,5.485
2023-02-03T02:57:39.488Z,5.421
2023-02-03T02:58:39.247Z,5.512
2023-02-03T02:59:39.219Z,5.552
2023-02-03T03:00:39.524Z,5.496
2023-02-03T03:01:39.961Z,5.459
2023-02-03T03:02:39.353Z,5.528
2023-02-03T03:03:39.611Z,5.475
2023-02-03T03:04:39.511Z,5.448
2023-02-03T03:05:38.895Z,5.424
2023-02-03T03:06:39.060Z,5.386
2023-02-03T03:07:38.924Z,5.362
2023-02-03T03:08:38.908Z,5.376
2023-02-03T03:09:38.946Z,5.386
2023-02-03T03:10:39.079Z,5.370
2023-02-03T03:11:39.426Z,5.362
2023-02-03T03:12:39.247Z,5.440
2023-02-03T03:13:39.291Z,5.421
2023-02-03T03:14:39.371Z,5.376
2023-02-03T03:15:39.329Z,5.432
2023-02-03T03:16:39.780Z,5.384
2023-02-03T03:17:39.908Z,5.426
2023-02-03T03:18:39.093Z,5.384
2023-02-03T03:19:39.137Z,5.344
2023-02-03T03:20:39.175Z,5.336
2023-02-03T03:21:39.140Z,5.373
2023-02-03T03:22:39.168Z,5.410
2023-02-03T03:23:39.068Z,5.400
2023-02-03T03:24:38.944Z,5.400
2023-02-03T03:25:38.893Z,5.424
2023-02-03T03:26:38.783Z,5.376
2023-02-03T03:27:39.647Z,5.346
2023-02-03T03:28:38.821Z,5.360
2023-02-03T03:29:39.818Z,5.370
2023-02-03T03:30:39.674Z,5.477
2023-02-03T03:31:39.079Z,5.469
2023-02-03T03:32:39.399Z,5.467
2023-02-03T03:33:39.195Z,5.437
2023-02-03T03:34:39.183Z,5.440
2023-02-03T03:35:39.184Z,5.464
2023-02-03T03:36:38.935Z,5.426
2023-02-03T03:37:38.765Z,5.464
2023-02-03T03:38:39.820Z,5.469
2023-02-03T03:39:39.592Z,5.435
2023-02-03T03:40:39.580Z,5.426
2023-02-03T03:41:39.650Z,5.496
2023-02-03T03:42:39.525Z,5.485
2023-02-03T03:43:39.828Z,5.448
2023-02-03T03:44:39.694Z,5.491
2023-02-03T03:45:39.763Z,5.477
2023-02-03T03:46:39.835Z,5.477
2023-02-03T03:47:39.879Z,5.469
2023-02-03T03:48:39.000Z,5.408
2023-02-03T03:49:39.783Z,5.451
2023-02-03T03:50:39.845Z,5.472
2023-02-03T03:51:39.605Z,5.549
2023-02-03T03:52:39.536Z,5.531
2023-02-03T03:53:39.329Z,5.549
2023-02-03T03:54:39.391Z,5.568
2023-02-03T03:55:39.179Z,5.549
2023-02-03T03:56:39.001Z,5.587
2023-02-03T03:57:38.985Z,5.592
2023-02-03T03:58:39.602Z,5.549
2023-02-03T03:59:39.455Z,5.632
2023-02-03T04:00:39.472Z,5.560
2023-02-03T04:01:39.785Z,5.571
2023-02-03T04:02:39.318Z,5.571
2023-02-03T04:03:39.316Z,5.624
2023-02-03T04:04:39.322Z,5.672
2023-02-03T04:05:39.098Z,5.600
2023-02-03T04:06:39.115Z,5.589
2023-02-03T04:07:38.852Z,5.571
2023-02-03T04:08:39.661Z,5.557
2023-02-03T04:09:39.452Z,5.520
2023-02-03T04:10:39.628Z,5.504
2023-02-03T04:11:39.500Z,5.512
2023-02-03T04:12:39.354Z,5.493
2023-02-03T04:13:39.156Z,5.496
2023-02-03T04:14:39.265Z,5.579
2023-02-03T04:15:39.246Z,5.576
2023-02-03T04:16:43.518Z,5.517
2023-02-03T04:17:42.908Z,5.571
2023-02-03T04:18:41.911Z,5.587
2023-02-03T04:19:38.898Z,5.557
2023-02-03T04:20:39.979Z,5.571
2023-02-03T04:22:39.804Z,5.501
2023-02-03T04:23:38.791Z,5.491
2023-02-03T04:24:38.873Z,5.624
2023-02-03T04:25:39.888Z,5.648
2023-02-03T04:26:38.867Z,5.632
2023-02-03T04:27:38.819Z,5.592
2023-02-03T04:28:38.802Z,5.691
2023-02-03T04:29:38.795Z,5.669
2023-02-03T04:30:38.909Z,5.637
2023-02-03T04:31:38.903Z,5.624
2023-02-03T04:32:39.044Z,5.589
2023-02-03T04:33:39.066Z,5.592
2023-02-03T04:34:39.040Z,5.563
2023-02-03T04:35:39.096Z,5.592
2023-02-03T04:36:38.948Z,5.613
2023-02-03T04:37:39.780Z,5.608
2023-02-03T04:38:38.801Z,5.608
2023-02-03T04:39:39.032Z,5.659
2023-02-03T04:40:39.130Z,5.619
2023-02-03T04:41:39.009Z,5.619
2023-02-03T04:42:38.947Z,5.608
2023-02-03T04:43:38.917Z,5.613
2023-02-03T04:44:38.927Z,5.603
2023-02-03T04:45:39.948Z,5.627
2023-02-03T04:46:39.364Z,5.627
2023-02-03T04:47:39.201Z,5.635
2023-02-03T04:48:39.006Z,5.686
2023-02-03T04:49:38.826Z,5.691
2023-02-03T04:50:38.938Z,5.611
2023-02-03T04:51:39.138Z,5.715
2023-02-03T04:52:39.039Z,5.664
2023-02-03T04:53:38.850Z,5.661
2023-02-03T04:54:38.971Z,5.653
2023-02-03T04:55:39.763Z,5.587
2023-02-03T04:56:39.882Z,5.571
2023-02-03T04:57:39.654Z,5.581
2023-02-03T04:58:39.694Z,5.613
2023-02-03T04:59:39.674Z,5.611
2023-02-03T05:00:39.687Z,5.629
2023-02-03T05:01:38.877Z,5.597
2023-02-03T05:02:39.831Z,5.624
2023-02-03T05:03:39.892Z,5.619
2023-02-03T05:04:38.735Z,5.581
2023-02-03T05:05:39.630Z,5.616
2023-02-03T05:06:39.353Z,5.584
2023-02-03T05:07:39.403Z,5.608
2023-02-03T05:08:39.566Z,5.600
2023-02-03T05:09:39.501Z,5.595
2023-02-03T05:10:39.454Z,5.547
2023-02-03T05:11:39.199Z,5.576
2023-02-03T05:12:39.079Z,5.584
2023-02-03T05:13:38.835Z,5.576
2023-02-03T05:14:38.882Z,5.557
2023-02-03T05:15:38.865Z,5.555
2023-02-03T05:16:39.768Z,5.501
2023-02-03T05:17:38.895Z,5.512
2023-02-03T05:18:39.703Z,5.571
2023-02-03T05:19:39.403Z,5.552
2023-02-03T05:20:39.267Z,5.571
2023-02-03T05:21:39.211Z,5.587
2023-02-03T05:22:38.985Z,5.597
2023-02-03T05:23:38.865Z,5.544
2023-02-03T05:24:39.667Z,5.523
2023-02-03T05:25:39.658Z,5.520
2023-02-03T05:26:39.810Z,5.515
2023-02-03T05:27:39.685Z,5.512
2023-02-03T05:28:39.793Z,5.531
2023-02-03T05:29:39.474Z,5.499
2023-02-03T05:30:39.647Z,5.472
2023-02-03T05:31:39.783Z,5.539
2023-02-03T05:32:38.985Z,5.515
2023-02-03T05:33:38.734Z,5.587
2023-02-03T05:34:41.361Z,5.579
2023-02-03T05:35:39.187Z,5.549
2023-02-03T05:36:39.283Z,5.485
2023-02-03T05:37:39.131Z,5.480
2023-02-03T05:38:39.103Z,5.533
2023-02-03T05:39:39.097Z,5.488
2023-02-03T05:40:38.850Z,5.469
2023-02-03T05:41:38.916Z,5.485
2023-02-03T05:42:38.690Z,5.491
2023-02-03T05:43:39.499Z,5.480
2023-02-03T05:44:39.382Z,5.571
2023-02-03T05:45:39.203Z,5.504
2023-02-03T05:46:39.307Z,5.461
2023-02-03T05:47:39.028Z,5.501
2023-02-03T05:48:38.747Z,5.515
2023-02-03T05:49:39.627Z,5.461
2023-02-03T05:50:39.623Z,5.451
2023-02-03T05:51:39.407Z,5.421
2023-02-03T05:52:39.206Z,5.488
2023-02-03T05:53:39.147Z,5.565
2023-02-03T05:54:39.119Z,5.493
2023-02-03T05:55:39.115Z,5.485
2023-02-03T05:56:38.866Z,5.405
2023-02-03T05:57:39.665Z,5.448
2023-02-03T05:58:39.545Z,5.400
2023-02-03T05:59:39.276Z,5.424
2023-02-03T06:00:39.389Z,5.443
2023-02-03T06:01:39.288Z,5.496
2023-02-03T06:02:39.313Z,5.432
2023-02-03T06:03:39.474Z,5.373
2023-02-03T06:04:39.657Z,5.373
2023-02-03T06:05:38.933Z,5.360
2023-02-03T06:06:39.187Z,5.365
2023-02-03T06:07:39.741Z,5.421
2023-02-03T06:08:39.732Z,5.408
2023-02-03T06:09:39.052Z,5.461
2023-02-03T06:10:39.101Z,5.451
2023-02-03T06:11:39.249Z,5.469
2023-02-03T06:12:39.515Z,5.472
2023-02-03T06:13:39.771Z,5.416
2023-02-03T06:14:38.871Z,5.418
2023-02-03T06:15:38.918Z,5.368
2023-02-03T06:16:39.087Z,5.357
2023-02-03T06:17:39.255Z,5.352
2023-02-03T06:18:39.633Z,5.400
2023-02-03T06:19:39.483Z,5.365
2023-02-03T06:20:39.392Z,5.378
2023-02-03T06:21:39.611Z,5.373
2023-02-03T06:22:39.538Z,5.394
2023-02-03T06:23:39.613Z,5.400
2023-02-03T06:24:39.529Z,5.432
2023-02-03T06:25:39.488Z,5.435
2023-02-03T06:26:39.495Z,5.499
2023-02-03T06:27:39.456Z,5.507
2023-02-03T06:28:38.848Z,5.515
2023-02-03T06:29:39.699Z,5.488
2023-02-03T06:30:39.859Z,5.547
2023-02-03T06:31:39.325Z,5.512
2023-02-03T06:32:39.551Z,5.483
2023-02-03T06:33:39.467Z,5.453
2023-02-03T06:34:39.786Z,5.435
2023-02-03T06:35:39.759Z,5.453
2023-02-03T06:36:40.006Z,5.469
2023-02-03T06:37:39.423Z,5.501
2023-02-03T06:38:39.542Z,5.475
2023-02-03T06:39:39.615Z,5.515
2023-02-03T06:40:39.800Z,5.491
2023-02-03T06:41:39.108Z,5.448
2023-02-03T06:42:39.140Z,5.496
2023-02-03T06:43:39.292Z,5.437
2023-02-03T06:44:39.372Z,5.459
2023-02-03T06:45:39.429Z,5.445
2023-02-03T06:46:39.610Z,5.488
2023-02-03T06:47:39.612Z,5.432
2023-02-03T06:48:39.500Z,5.488
2023-02-03T06:49:39.444Z,5.483
2023-02-03T06:50:39.547Z,5.515
2023-02-03T06:51:39.760Z,5.464
2023-02-03T06:52:39.880Z,5.525
2023-02-03T06:53:39.656Z,5.496
2023-02-03T06:54:40.526Z,5.472
2023-02-03T06:55:39.408Z,5.469
2023-02-03T06:56:39.284Z,5.469
2023-02-03T06:57:39.273Z,5.496
2023-02-03T06:58:39.107Z,5.597
2023-02-03T06:59:38.878Z,5.584
2023-02-03T07:00:38.998Z,5.549
2023-02-03T07:01:38.852Z,5.512
2023-02-03T07:02:38.847Z,5.485
2023-02-03T07:03:38.864Z,5.469
2023-02-03T07:04:39.698Z,5.571
2023-02-03T07:05:39.537Z,5.536
2023-02-03T07:06:39.239Z,5.515
2023-02-03T07:07:39.014Z,5.453
2023-02-03T07:08:38.907Z,5.499
2023-02-03T07:09:39.628Z,5.520
2023-02-03T07:10:39.457Z,5.467
2023-02-03T07:11:39.139Z,5.475
2023-02-03T07:12:38.889Z,5.477
2023-02-03T07:13:39.584Z,5.523
2023-02-03T07:14:39.305Z,5.525
2023-02-03T07:15:39.403Z,5.539
2023-02-03T07:16:39.381Z,5.517
2023-02-03T07:17:39.067Z,5.549
2023-02-03T07:18:47.157Z,5.571
2023-02-03T07:19:39.120Z,5.605
2023-02-03T07:20:38.818Z,5.560
2023-02-03T07:21:39.528Z,5.645
2023-02-03T07:22:39.226Z,5.608
2023-02-03T07:23:38.910Z,5.560
2023-02-03T07:24:39.591Z,5.555
2023-02-03T07:25:39.510Z,5.563
2023-02-03T07:26:39.237Z,5.675
2023-02-03T07:27:38.917Z,5.720
2023-02-03T07:28:38.717Z,5.653
2023-02-03T07:29:39.336Z,5.659
2023-02-03T07:30:39.068Z,5.691
2023-02-03T07:31:39.080Z,5.667
2023-02-03T07:32:39.350Z,5.611
2023-02-03T07:33:39.297Z,5.645
2023-02-03T07:34:39.005Z,5.686
2023-02-03T07:35:38.739Z,5.790
2023-02-03T07:36:39.781Z,5.763
2023-02-03T07:37:39.640Z,5.784
2023-02-03T07:38:39.350Z,5.763
2023-02-03T07:39:39.060Z,5.734
2023-02-03T07:40:38.813Z,5.800
2023-02-03T07:41:39.679Z,5.768
2023-02-03T07:42:39.496Z,5.774
2023-02-03T07:43:39.540Z,5.800
2023-02-03T07:44:39.394Z,5.827
2023-02-03T07:45:39.068Z,5.808
2023-02-03T07:46:38.822Z,5.814
2023-02-03T07:47:38.861Z,5.811
2023-02-03T07:48:39.606Z,5.835
2023-02-03T07:49:39.507Z,5.851
2023-02-03T07:50:39.294Z,5.830
2023-02-03T07:51:39.223Z,5.827
2023-02-03T07:52:39.724Z,5.851
2023-02-03T07:53:39.438Z,5.832
2023-02-03T07:54:39.316Z,5.840
2023-02-03T07:55:39.014Z,5.811
2023-02-03T07:56:39.641Z,5.838
2023-02-03T07:57:39.367Z,5.758
2023-02-03T07:58:39.022Z,5.822
2023-02-03T07:59:38.773Z,5.819
2023-02-03T08:00:39.631Z,5.822
2023-02-03T08:01:39.624Z,5.838
2023-02-03T08:02:38.986Z,5.843
2023-02-03T08:03:38.756Z,5.827
2023-02-03T08:04:38.962Z,5.848
2023-02-03T08:05:38.830Z,5.856
2023-02-03T08:06:38.721Z,5.888
2023-02-03T08:07:39.532Z,5.896
2023-02-03T08:08:39.213Z,5.814
2023-02-03T08:09:39.005Z,5.824
2023-02-03T08:10:39.615Z,5.856
2023-02-03T08:11:39.520Z,5.902
2023-02-03T08:12:39.257Z,5.904
2023-02-03T08:13:38.994Z,5.907
2023-02-03T08:14:38.764Z,5.910
2023-02-03T08:15:39.411Z,5.891
2023-02-03T08:16:39.381Z,5.907
2023-02-03T08:17:39.153Z,5.870
2023-02-03T08:18:39.032Z,5.886
2023-02-03T08:19:38.880Z,5.931
2023-02-03T08:20:39.659Z,5.971
2023-02-03T08:21:39.312Z,5.993
2023-02-03T08:22:39.018Z,5.929
2023-02-03T08:23:38.783Z,5.950
2023-02-03T08:24:38.707Z,5.945
2023-02-03T08:25:40.502Z,5.995
2023-02-03T08:26:39.211Z,6.006
2023-02-03T08:27:38.838Z,6.003
2023-02-03T08:28:38.802Z,5.969
2023-02-03T08:29:39.482Z,5.953
2023-02-03T08:30:39.182Z,6.006
2023-02-03T08:31:39.219Z,6.046
2023-02-03T08:32:39.247Z,6.001
2023-02-03T08:33:39.058Z,6.019
2023-02-03T08:34:39.054Z,6.011
2023-02-03T08:35:38.876Z,5.950
2023-02-03T08:36:38.977Z,5.982
2023-02-03T08:37:38.692Z,5.987
2023-02-03T08:38:39.402Z,5.961
2023-02-03T08:39:39.433Z,6.011
2023-02-03T08:40:39.424Z,6.014
2023-02-03T08:41:39.219Z,6.019
2023-02-03T08:42:39.028Z,6.035
2023-02-03T08:43:39.048Z,5.993
2023-02-03T08:44:38.808Z,6.041
2023-02-03T08:45:39.765Z,6.043
2023-02-03T08:46:38.732Z,6.017
2023-02-03T08:47:38.967Z,6.051
2023-02-03T08:48:38.764Z,6.091
2023-02-03T08:49:39.527Z,6.091
2023-02-03T08:50:39.311Z,6.043
2023-02-03T08:51:39.324Z,6.046
2023-02-03T08:52:39.224Z,5.979
2023-02-03T08:53:38.942Z,5.950
2023-02-03T08:54:38.682Z,5.894
2023-02-03T08:55:40.474Z,5.902
2023-02-03T08:56:39.451Z,5.838
2023-02-03T08:57:39.133Z,5.822
2023-02-03T08:58:38.804Z,5.854
2023-02-03T08:59:39.633Z,5.878
2023-02-03T09:00:39.451Z,5.838
2023-02-03T09:01:39.312Z,5.822
2023-02-03T09:02:39.150Z,5.800
2023-02-03T09:03:38.963Z,5.816
2023-02-03T09:04:39.638Z,5.902
2023-02-03T09:05:39.572Z,5.878
2023-02-03T09:06:41.756Z,5.904
2023-02-03T09:07:39.389Z,5.907
2023-02-03T09:08:39.049Z,5.883
2023-02-03T09:09:39.190Z,5.819
2023-02-03T09:10:39.454Z,5.915
2023-02-03T09:11:39.265Z,5.912
2023-02-03T09:12:39.570Z,5.851
2023-02-03T09:13:39.383Z,5.870
2023-02-03T09:14:39.360Z,5.803
2023-02-03T09:15:39.294Z,5.811
2023-02-03T09:16:39.335Z,5.918
2023-02-03T09:17:39.600Z,5.880
2023-02-03T09:18:39.395Z,5.827
2023-02-03T09:19:39.260Z,5.830
2023-02-03T09:20:39.547Z,5.832
2023-02-03T09:21:45.327Z,5.832
2023-02-03T09:22:39.586Z,5.838
2023-02-03T09:23:39.487Z,5.971
2023-02-03T09:24:39.161Z,6.009
2023-02-03T09:25:39.052Z,6.017
2023-02-03T09:26:39.499Z,6.043
2023-02-03T09:27:39.319Z,6.030
2023-02-03T09:28:39.246Z,5.985
2023-02-03T09:29:39.127Z,5.995
2023-02-03T09:30:38.841Z,5.969
2023-02-03T09:31:38.876Z,6.030
2023-02-03T09:32:38.737Z,6.081
2023-02-03T09:33:39.648Z,6.137
2023-02-03T09:34:39.507Z,6.155
2023-02-03T09:35:39.387Z,6.142
2023-02-03T09:36:39.722Z,6.142
2023-02-03T09:37:39.407Z,6.126
2023-02-03T09:38:39.265Z,6.131
2023-02-03T09:39:39.156Z,6.241
2023-02-03T09:40:39.047Z,6.244
2023-02-03T09:42:41.950Z,6.265
2023-02-03T09:43:41.724Z,6.302
2023-02-03T09:44:42.678Z,6.281
2023-02-03T09:45:42.549Z,6.281
2023-02-03T09:46:42.631Z,6.284
2023-02-03T09:47:42.459Z,6.353
2023-02-03T09:48:42.143Z,6.393
2023-02-03T09:49:42.040Z,6.337
2023-02-03T09:50:42.000Z,6.358
2023-02-03T09:51:41.780Z,6.353
2023-02-03T09:52:42.478Z,6.420
2023-02-03T09:53:42.244Z,6.449
2023-02-03T09:54:42.002Z,6.457
2023-02-03T09:55:41.785Z,6.417
2023-02-03T09:56:48.204Z,6.495
2023-02-03T09:57:42.109Z,6.473
2023-02-03T09:58:41.871Z,6.479
2023-02-03T09:59:42.551Z,6.468
2023-02-03T10:00:42.550Z,6.524
2023-02-03T10:01:43.684Z,6.511
2023-02-03T10:02:42.500Z,6.553
2023-02-03T10:03:42.487Z,6.596
2023-02-03T10:04:42.340Z,6.569
2023-02-03T10:05:42.039Z,6.607
2023-02-03T10:06:42.704Z,6.636
2023-02-03T10:07:42.561Z,6.658
2023-02-03T10:08:42.457Z,6.698
2023-02-03T10:09:42.199Z,6.711
2023-02-03T10:10:41.914Z,6.743
2023-02-03T10:11:41.784Z,6.727
2023-02-03T10:12:42.537Z,6.799
2023-02-03T10:13:42.218Z,6.775
2023-02-03T10:14:41.949Z,6.762
2023-02-03T10:15:41.843Z,6.796
2023-02-03T10:16:42.684Z,6.756
2023-02-03T10:17:41.944Z,6.788
2023-02-03T10:18:41.845Z,6.799
2023-02-03T10:19:42.599Z,6.799
2023-02-03T10:20:42.591Z,6.791
2023-02-03T10:21:42.351Z,6.836
2023-02-03T10:22:42.290Z,6.788
2023-02-03T10:23:42.062Z,6.815
2023-02-03T10:24:41.927Z,6.804
2023-02-03T10:25:41.859Z,6.804
2023-02-03T10:26:41.967Z,6.812
2023-02-03T10:27:41.909Z,6.775
2023-02-03T10:28:41.704Z,6.852
2023-02-03T10:29:42.569Z,6.855
2023-02-03T10:30:42.566Z,6.844
2023-02-03T10:31:42.178Z,6.828
2023-02-03T10:32:41.876Z,6.836
2023-02-03T10:33:42.624Z,6.828
2023-02-03T10:34:42.760Z,6.874
2023-02-03T10:35:41.773Z,6.855
2023-02-03T10:36:43.361Z,6.901
2023-02-03T10:37:42.267Z,6.911
2023-02-03T10:38:42.114Z,6.927
2023-02-03T10:39:42.201Z,6.927
2023-02-03T10:40:42.161Z,6.898
2023-02-03T10:41:42.026Z,6.911
2023-02-03T10:42:41.891Z,6.922
2023-02-03T10:43:42.810Z,6.959
2023-02-03T10:44:42.730Z,6.938
2023-02-03T10:45:42.811Z,6.927
2023-02-03T10:46:42.116Z,6.951
2023-02-03T10:47:42.192Z,6.935
2023-02-03T10:48:41.874Z,6.917
2023-02-03T10:49:43.488Z,6.941
2023-02-03T10:50:42.505Z,6.930
2023-02-03T10:51:42.204Z,6.994
2023-02-03T10:52:41.808Z,6.997
2023-02-03T10:53:42.600Z,6.957
2023-02-03T10:54:42.291Z,6.970
2023-02-03T10:55:42.168Z,6.978
2023-02-03T10:56:42.112Z,6.981
2023-02-03T10:57:41.931Z,7.018
2023-02-03T10:59:42.529Z,7.029
2023-02-03T11:00:42.680Z,7.042
2023-02-03T11:01:42.693Z,7.050
2023-02-03T11:02:41.840Z,7.109
2023-02-03T11:03:41.917Z,7.103
2023-02-03T11:04:41.696Z,7.125
2023-02-03T11:05:43.497Z,7.103
2023-02-03T11:06:42.685Z,7.106
2023-02-03T11:07:42.944Z,7.133
2023-02-03T11:08:49.263Z,7.114
2023-02-03T11:09:42.679Z,7.085
2023-02-03T11:10:42.434Z,7.090
2023-02-03T11:11:43.197Z,7.144
2023-02-03T11:12:42.455Z,7.152
2023-02-03T11:13:43.235Z,7.154
2023-02-03T11:14:42.915Z,7.119
2023-02-03T11:15:42.270Z,7.186
2023-02-03T11:16:44.117Z,7.157
2023-02-03T11:17:42.738Z,7.152
2023-02-03T11:18:42.882Z,7.168
2023-02-03T11:19:42.288Z,7.178
2023-02-03T11:20:41.964Z,7.170
2023-02-03T11:21:42.057Z,7.152
2023-02-03T11:22:41.744Z,7.141
2023-02-03T11:23:42.139Z,7.189
2023-02-03T11:24:41.894Z,7.152
2023-02-03T11:25:42.550Z,7.114
2023-02-03T11:26:42.353Z,7.117
2023-02-03T11:27:42.077Z,7.122
2023-02-03T11:28:42.255Z,7.114
2023-02-03T11:29:42.188Z,7.106
2023-02-03T11:30:42.123Z,7.111
2023-02-03T11:31:42.447Z,7.063
2023-02-03T11:32:42.581Z,7.077
2023-02-03T11:33:42.292Z,7.053
2023-02-03T11:34:42.100Z,7.077
2023-02-03T11:35:42.232Z,7.042
2023-02-03T11:36:41.928Z,7.045
2023-02-03T11:37:42.619Z,7.050
2023-02-03T11:38:42.360Z,7.029
2023-02-03T11:39:42.190Z,7.045
2023-02-03T11:40:41.915Z,7.031
2023-02-03T11:41:42.640Z,7.029
2023-02-03T11:42:42.331Z,7.018
2023-02-03T11:43:41.928Z,7.007
2023-02-03T11:44:41.799Z,7.029
2023-02-03T11:45:42.511Z,7.050
2023-02-03T11:46:42.670Z,7.047
2023-02-03T11:47:41.839Z,7.005
2023-02-03T11:48:42.883Z,7.013
2023-02-03T11:49:42.722Z,7.015
2023-02-03T11:50:42.535Z,7.053
2023-02-03T11:51:42.215Z,7.031
2023-02-03T11:52:41.985Z,7.045
2023-02-03T11:53:55.102Z,7.021
2023-02-03T11:54:42.613Z,7.018
2023-02-03T11:55:42.512Z,6.999
2023-02-03T11:56:42.184Z,7.023
2023-02-03T11:57:41.887Z,7.002
2023-02-03T11:58:42.757Z,6.997
2023-02-03T11:59:42.521Z,6.997
2023-02-03T12:00:42.395Z,6.989
2023-02-03T12:01:42.515Z,7.007
2023-02-03T12:02:42.385Z,6.975
2023-02-03T12:03:42.430Z,6.991
2023-02-03T12:04:42.296Z,6.975
2023-02-03T12:05:42.454Z,6.975
2023-02-03T12:06:42.278Z,6.925
2023-02-03T12:07:42.143Z,6.983
2023-02-03T12:08:41.882Z,6.949
2023-02-03T12:09:42.312Z,6.957
2023-02-03T12:10:42.228Z,6.951
2023-02-03T12:11:41.926Z,6.957
2023-02-03T12:12:42.617Z,6.949
2023-02-03T12:13:42.598Z,6.957
2023-02-03T12:14:42.388Z,6.943
2023-02-03T12:15:42.508Z,6.994
2023-02-03T12:16:42.395Z,6.991
2023-02-03T12:17:42.322Z,7.007
2023-02-03T12:18:42.239Z,6.970
2023-02-03T12:19:42.283Z,6.959
2023-02-03T12:20:42.071Z,6.962
2023-02-03T12:21:41.849Z,6.954
2023-02-03T12:22:42.553Z,6.959
2023-02-03T12:23:42.460Z,6.981
2023-02-03T12:24:42.356Z,6.965
2023-02-03T12:25:42.246Z,6.975
2023-02-03T12:26:41.956Z,6.983
2023-02-03T12:27:43.631Z,6.946
2023-02-03T12:28:47.371Z,6.911
2023-02-03T12:29:42.033Z,6.919
2023-02-03T12:30:41.876Z,6.957
2023-02-03T12:31:41.831Z,6.951
2023-02-03T12:32:42.544Z,6.938
2023-02-03T12:33:42.373Z,6.898
2023-02-03T12:34:42.208Z,6.884
2023-02-03T12:35:41.865Z,6.930
2023-02-03T12:36:42.597Z,6.895
2023-02-03T12:37:42.594Z,6.901
2023-02-03T12:38:42.412Z,6.927
2023-02-03T12:39:42.170Z,6.911
2023-02-03T12:40:42.024Z,6.887
2023-02-03T12:41:42.281Z,6.852
2023-02-03T12:42:42.208Z,6.858
2023-02-03T12:43:42.028Z,6.836
2023-02-03T12:44:42.842Z,6.863
2023-02-03T12:45:42.641Z,6.804
2023-02-03T12:46:41.809Z,6.834
2023-02-03T12:47:42.487Z,6.839
2023-02-03T12:48:42.242Z,6.762
2023-02-03T12:49:41.817Z,6.812
2023-02-03T12:50:42.503Z,6.812
2023-02-03T12:51:42.431Z,6.828
2023-02-03T12:52:42.128Z,6.826
2023-02-03T12:53:41.919Z,6.802
2023-02-03T12:54:42.635Z,6.746
2023-02-03T12:55:42.467Z,6.764